Flight Track Log - Related Links

Times and Time Zones

All times are in EDT time to prevent confusion due to time zone crossing. See the N521BD flight status page for this flight to view local times or setup timezone preferences in your user account.

Time Position Orientation Groundspeed Altitude Reporting Facility
EDT Latitude Longitude Course Direction KTS MPH feet Rate Location/Type
Wed 02:18:58 PM 32.3386 -104.0750 88° East 108 124 7,100  Level Albuquerque Center
Wed 02:19:59 PM 32.3378 -104.0353 91° East 113 130 7,800 780 Climbing Albuquerque Center
Wed 02:21:01 PM 32.3356 -103.9869 93° East 122 140 8,700 774 Climbing Albuquerque Center
Wed 02:22:03 PM 32.3353 -103.9469 90° East 123 142 9,400 726 Climbing Albuquerque Center
Wed 02:23:05 PM 32.3358 -103.9089 89° East 119 137 10,200 726 Climbing Albuquerque Center
Wed 02:24:07 PM 32.3350 -103.8700 91° East 117 135 10,900 387 Climbing Albuquerque Center
Wed 02:25:09 PM 32.3350 -103.8250 90° East 132 152 11,000 48 Climbing Albuquerque Center
Wed 02:26:11 PM 32.3333 -103.7736 92° East 150 173 11,000 -49 Level Albuquerque Center
Wed 02:27:12 PM 32.3344 -103.7150 89° East 151 174 10,900 -49 Descending Albuquerque Center
Wed 02:28:14 PM 32.3328 -103.6656 92° East 150 173 10,900  Level Albuquerque Center
Wed 02:29:16 PM 32.3331 -103.6153 90° East 153 176 10,900  Level Albuquerque Center
Wed 02:30:18 PM 32.3336 -103.5661 89° East 152 175 10,900  Level Albuquerque Center
Wed 02:31:20 PM 32.3322 -103.5167 92° East 150 173 10,900  Level Albuquerque Center
Wed 02:32:22 PM 32.3317 -103.4656 91° East 154 177 10,900 58 Level Albuquerque Center
Wed 02:34:46 PM 32.3322 -103.3406 90° East 148 170 11,100 29 Climbing Fort Worth Center
Wed 02:35:46 PM 32.3306 -103.2889 92° East 148 170 11,000 -50 Descending Fort Worth Center
Wed 02:36:46 PM 32.3286 -103.2397 93° East 148 170 11,000  Level Fort Worth Center
Wed 02:37:46 PM 32.3289 -103.1881 90° East 148 170 11,000  Level Fort Worth Center
Wed 02:38:46 PM 32.3269 -103.1411 93° East 148 170 11,000  Level Fort Worth Center
Wed 02:39:46 PM 32.3231 -103.0894 95° East 148 170 11,000  Level Fort Worth Center
Wed 02:40:46 PM 32.3253 -103.0378 87° East 148 170 11,000  Level Fort Worth Center
Wed 02:41:46 PM 32.3256 -102.9864 90° East 153 176 11,000  Level Fort Worth Center
Wed 02:42:46 PM 32.3256 -102.9372 90° East 153 176 11,000  Level Fort Worth Center
Wed 02:43:46 PM 32.3236 -102.8853 93° East 153 176 11,000  Level Fort Worth Center
Wed 02:44:46 PM 32.3217 -102.8361 93° East 153 176 11,000 50 Level Fort Worth Center
Wed 02:45:46 PM 32.3217 -102.7869 90° East 153 176 11,100 50 Climbing Fort Worth Center
Wed 02:46:46 PM 32.3197 -102.7328 92° East 153 176 11,100  Level Fort Worth Center
Wed 02:47:46 PM 32.3197 -102.6836 90° East 153 176 11,100  Level Fort Worth Center
Wed 02:48:46 PM 32.3197 -102.6344 90° East 148 170 11,100 -50 Level Fort Worth Center
Wed 02:49:46 PM 32.3175 -102.5853 93° East 148 170 11,000  Descending Fort Worth Center
Wed 02:50:46 PM 32.3156 -102.5358 93° East 148 170 11,100 50 Climbing Fort Worth Center
Wed 02:51:46 PM 32.3156 -102.4844 90° East 148 170 11,100  Level Fort Worth Center
Wed 02:52:46 PM 32.3153 -102.4350 90° East 148 170 11,100  Level Fort Worth Center
Wed 02:53:46 PM 32.3131 -102.3858 93° East 148 170 11,100  Level Fort Worth Center
Wed 02:54:46 PM 32.3131 -102.3342 90° East 148 170 11,100  Level Fort Worth Center
Wed 02:55:46 PM 32.3108 -102.2825 93° East 148 170 11,100 -11 Level Fort Worth Center
Wed 02:57:00 PM 32.3085 -102.2217 93° East  Level FlightAware Approximate
Wed 03:03:47 PM 32.3050 -101.8792 93° East 147 169 11,000  Level Fort Worth Center
Wed 03:04:00 PM 32.2949 -101.8765 93° East  Level FlightAware Approximate
Wed 03:04:47 PM 32.3025 -101.8325 94° East 147 169 11,000  Level Fort Worth Center
Wed 03:05:00 PM 32.2929 -101.8272 93° East  Level FlightAware Approximate
Wed 03:05:47 PM 32.3000 -101.7831 93° East 157 181 11,000  Level Fort Worth Center
Wed 03:06:00 PM 32.2909 -101.7779 93° East  Level FlightAware Approximate
Wed 03:06:47 PM 32.2997 -101.7339 90° East 157 181 10,900  Level Fort Worth Center
Wed 03:07:00 PM 32.2888 -101.7286 93° East  Level FlightAware Approximate
Wed 03:07:47 PM 32.2994 -101.6822 90° East 157 181 11,000  Level Fort Worth Center
Wed 03:08:00 PM 32.2867 -101.6793 93° East  Level FlightAware Approximate
Wed 03:08:47 PM 32.2969 -101.6306 93° East 157 181 10,900  Level Fort Worth Center
Wed 03:09:00 PM 32.2846 -101.6300 93° East  Level FlightAware Approximate
Wed 03:09:47 PM 32.2944 -101.5814 93° East 157 181 10,900  Level Fort Worth Center
Wed 03:10:47 PM 32.2939 -101.5297 91° East 157 181 11,000  Climbing Fort Worth Center
Wed 03:11:47 PM 32.2936 -101.4806 90° East 157 181 10,900  Descending Fort Worth Center
Wed 03:12:47 PM 32.2908 -101.4314 94° East 152 175 11,000 50 Climbing Fort Worth Center
Wed 03:13:47 PM 32.2903 -101.3847 91° East 147 169 11,000  Level Fort Worth Center
Wed 03:14:47 PM 32.2858 -101.3303 96° East 147 169 11,000 -50 Level Fort Worth Center
Wed 03:15:47 PM 32.2872 -101.2814 88° East 147 169 10,900  Descending Fort Worth Center
Wed 03:16:47 PM 32.2867 -101.2297 91° East 153 176 11,000 50 Climbing Fort Worth Center
Wed 03:17:46 PM 32.2864 -101.1781 90° East 158 182 11,000  Level Fort Worth Center
Wed 03:18:47 PM 32.2836 -101.1264 94° East 158 182 11,000  Level Fort Worth Center
Wed 03:19:46 PM 32.2811 -101.0747 93° East 158 182 11,000 -50 Level Fort Worth Center
Wed 03:20:46 PM 32.2803 -101.0231 91° East 158 182 10,900  Descending Fort Worth Center
Wed 03:21:46 PM 32.2775 -100.9736 94° East 158 182 11,000 50 Climbing Fort Worth Center
Wed 03:22:47 PM 32.2769 -100.9269 91° East 153 176 11,000  Level Fort Worth Center
Wed 03:23:46 PM 32.2742 -100.8753 94° East 153 176 11,000  Level Fort Worth Center
Wed 03:24:47 PM 32.2714 -100.8236 94° East 153 176 11,000  Level Fort Worth Center
Wed 03:25:47 PM 32.2725 -100.7844 88° East 153 176 11,000  Level Fort Worth Center
Wed 03:26:47 PM 32.2694 -100.7350 94° East 143 165 11,000 -50 Level Fort Worth Center
Wed 03:27:47 PM 32.2667 -100.6883 94° East 143 165 10,900  Descending Fort Worth Center
Wed 03:28:47 PM 32.2658 -100.6367 91° East 143 165 11,000 50 Climbing Fort Worth Center
Wed 03:29:46 PM 32.2631 -100.5875 94° East 143 165 11,000  Level Fort Worth Center
Wed 03:30:47 PM 32.2622 -100.5358 91° East 143 165 11,000  Level Fort Worth Center
Wed 03:31:47 PM 32.2614 -100.4867 91° East 143 165 11,000  Level Fort Worth Center
Wed 03:32:47 PM 32.2603 -100.4400 92° East 143 165 11,000  Level Fort Worth Center
Wed 03:33:47 PM 32.2553 -100.3908 97° East 143 165 11,000  Level Fort Worth Center
Wed 03:34:47 PM 32.2564 -100.3442 88° East 143 165 11,000  Level Fort Worth Center
Wed 03:35:47 PM 32.2533 -100.2925 94° East 143 165 11,000  Level Fort Worth Center
Wed 03:36:47 PM 32.2525 -100.2408 91° East 143 165 11,000  Level Fort Worth Center
Wed 03:37:47 PM 32.2514 -100.1917 92° East 143 165 11,000  Level Fort Worth Center
Wed 03:38:47 PM 32.2483 -100.1425 94° East 143 165 11,000  Level Fort Worth Center
Wed 03:39:47 PM 32.2453 -100.0933 94° East 143 165 11,000  Level Fort Worth Center
Wed 03:40:47 PM 32.2442 -100.0439 92° East 143 165 11,000  Level Fort Worth Center
Wed 03:41:46 PM 32.2431 -99.9950 92° East 143 165 11,000  Level Fort Worth Center
Wed 03:42:47 PM 32.2400 -99.9383 94° East 148 170 11,000  Level Fort Worth Center
Wed 03:43:46 PM 32.2386 -99.9014 93° East 148 170 11,000  Level Fort Worth Center
Wed 03:45:00 PM 32.2348 -99.8407 94° East  Level FlightAware Approximate
Wed 03:51:23 PM 32.2250 -99.5106 92° East 156 180 11,000  Level Fort Worth Center
Wed 03:52:00 PM 32.2224 -99.4956 92° East  Level FlightAware Approximate
Wed 03:52:23 PM 32.2236 -99.4614 92° East 156 180 11,000  Level Fort Worth Center
Wed 03:53:00 PM 32.2207 -99.4463 92° East  Level FlightAware Approximate
Wed 03:53:23 PM 32.2225 -99.4122 92° East 151 174 11,000  Level Fort Worth Center
Wed 03:54:00 PM 32.2189 -99.3971 92° East  Level FlightAware Approximate
Wed 03:54:23 PM 32.2211 -99.3631 92° East 151 174 11,000  Level Fort Worth Center
Wed 03:55:00 PM 32.2171 -99.3478 92° East  Level FlightAware Approximate
Wed 03:55:23 PM 32.2197 -99.3164 92° East 146 168 11,000  Level Fort Worth Center
Wed 03:56:00 PM 32.2153 -99.2985 92° East  Level FlightAware Approximate
Wed 03:56:23 PM 32.2164 -99.2625 94° East 146 168 11,000  Level Fort Worth Center
Wed 03:57:23 PM 32.2150 -99.2083 92° East 151 174 11,000  Level Fort Worth Center
Wed 03:58:23 PM 32.2117 -99.1617 95° East 151 174 11,000  Level Fort Worth Center
Wed 04:00:23 PM 32.2108 -99.0586 91° East 151 174 11,000  Level Fort Worth Center
Wed 04:01:23 PM 32.2094 -99.0094 92° East 151 174 11,000  Level Fort Worth Center
Wed 04:02:23 PM 32.2058 -98.9603 95° East 151 174 11,000  Level Fort Worth Center
Wed 04:03:23 PM 32.2044 -98.9086 92° East 151 174 11,000  Level Fort Worth Center
Wed 04:04:23 PM 32.2028 -98.8669 93° East 151 174 11,000  Level Fort Worth Center
Wed 04:05:23 PM 32.2014 -98.8153 92° East 151 174 11,000  Level Fort Worth Center
Wed 04:06:23 PM 32.1978 -98.7661 95° East 146 168 11,000  Level Fort Worth Center
Wed 04:07:23 PM 32.1961 -98.7169 92° East 141 162 11,000  Level Fort Worth Center
Wed 04:08:23 PM 32.1944 -98.6656 92° East 141 162 11,000  Level Fort Worth Center
Wed 04:09:23 PM 32.1886 -98.6161 98° East 141 162 11,000  Level Fort Worth Center
Wed 04:10:23 PM 32.1892 -98.5672 89° East 141 162 11,000  Level Fort Worth Center
Wed 04:11:23 PM 32.1856 -98.5181 95° East 141 162 11,000  Level Fort Worth Center
Wed 04:12:23 PM 32.1858 -98.4664 90° East 146 168 11,000  Level Fort Worth Center
Wed 04:13:23 PM 32.1864 -98.4100 89° East 146 168 11,000  Level Fort Worth Center
Wed 04:14:23 PM 32.1825 -98.3608 95° East 146 168 11,000  Level Fort Worth Center
Wed 04:15:23 PM 32.1808 -98.3069 92° East 151 174 11,000  Level Fort Worth Center
Wed 04:16:23 PM 32.1811 -98.2578 90° East 151 174 11,000  Level Fort Worth Center
Wed 04:17:23 PM 32.1794 -98.2086 92° East 156 180 11,000 -200 Level Fort Worth Center
Wed 04:18:23 PM 32.1839 -98.1572 84° East 156 180 10,600 -400 Descending Fort Worth Center
Wed 04:19:23 PM 32.1925 -98.1056 79° East 156 180 10,200 -450 Descending Fort Worth Center
Wed 04:20:23 PM 32.1992 -98.0592 80° East 156 180 9,700 -450 Descending Fort Worth Center
Wed 04:21:23 PM 32.2056 -98.0100 81° East 156 180 9,300 -450 Descending Fort Worth Center
Wed 04:22:23 PM 32.2122 -97.9586 81° East 151 174 8,800 -450 Descending Fort Worth Center
Wed 04:23:23 PM 32.2186 -97.9119 81° East 146 168 8,400 -450 Descending Fort Worth Center
Wed 04:24:23 PM 32.2272 -97.8653 78° East 146 168 7,900 -450 Descending Fort Worth Center
Wed 04:25:23 PM 32.2336 -97.8186 81° East 146 168 7,500 -450 Descending Fort Worth Center
Wed 04:26:23 PM 32.2419 -97.7694 79° East 146 168 7,000 -550 Descending Fort Worth Center
Wed 04:27:23 PM 32.2483 -97.7278 80° East 141 162 6,400 -550 Descending Fort Worth Center
Wed 04:28:23 PM 32.2528 -97.6811 84° East 141 162 5,900 -550 Descending Fort Worth Center
Wed 04:29:23 PM 32.2633 -97.6394 73° East 141 162 5,300 -550 Descending Fort Worth Center
Wed 04:30:23 PM 32.2903 -97.6100 43° Northeast 129 148 4,800 -500 Descending Fort Worth Center
Wed 04:31:23 PM 32.3133 -97.5756 52° Northeast 129 148 4,300 -400 Descending Fort Worth Center
Wed 04:32:23 PM 32.3386 -97.5414 49° Northeast 129 148 4,000 -150 Descending Fort Worth Center
Wed 04:33:23 PM 32.3614 -97.5094 50° Northeast 134 154 4,000  Level Fort Worth Center
Wed 04:34:23 PM 32.3844 -97.4772 50° Northeast 129 148 4,000  Level Fort Worth Center
Wed 04:35:23 PM 32.4094 -97.4453 47° Northeast 129 148 4,000 50 Level Fort Worth Center
Wed 04:36:23 PM 32.4325 -97.4108 52° Northeast 134 154 4,100 50 Climbing Fort Worth Center
Wed 04:37:23 PM 32.4597 -97.3764 47° Northeast 134 154 4,100 -50 Level Fort Worth Center
Wed 04:38:23 PM 32.4847 -97.3419 49° Northeast 134 154 4,000  Descending Fort Worth Center
Wed 04:39:23 PM 32.5078 -97.3125 47° Northeast 128 147 4,100 -250 Climbing Fort Worth Center
Wed 04:40:23 PM 32.5328 -97.2803 47° Northeast 128 147 3,500 -646 Descending Fort Worth Center
Wed 04:41:33 PM 32.5667 -97.2333 49° Northeast 125 144 2,700 -462 Descending Dallas / Fort Worth TRACON
Wed 04:42:33 PM 32.5833 -97.2000 59° Northeast 133 153 2,500 -101 Descending Dallas / Fort Worth TRACON
Wed 04:43:32 PM 32.6000 -97.1667 59° Northeast 134 154 2,500 -202 Level Dallas / Fort Worth TRACON
Wed 04:44:32 PM 32.6167 -97.1333 59° Northeast 138 159 2,100 -500 Descending Dallas / Fort Worth TRACON
Wed 04:45:32 PM 32.6333 -97.1000 59° Northeast 114 131 1,500 -600 Descending Dallas / Fort Worth TRACON
Wed 04:46:32 PM 32.6500 -97.0833 40° Northeast 85 98 900 -600 Descending Dallas / Fort Worth TRACON
Wed 04:48:00 PM 32.6639 -97.0943 40° Northeast  Level Estimated

Login

Don't have an account? Register now (free) for customized features, flight alerts, and more!